Time;durP1;ratioP1;P1;durP2;ratioP2;P2;SDS_P1;SDS_P2;PMS_P1;PMS_P2;Temp;Humidity;BMP_temperature;BMP_pressure;BME280_temperature;BME280_humidity;BME280_pressure;Samples;Min_cycle;Max_cycle;Signal;HPM_P1;HPM_P2
2023/09/28 00:03:04;;;;;;;15.48;2.40;;;;;;;19.18;77.17;100638.38;7359941;19;20306;-67
2023/09/28 00:05:32;;;;;;;16.60;1.45;;;;;;;19.18;77.99;100633.88;7358560;19;20018;-68
2023/09/28 00:08:00;;;;;;;16.70;1.25;;;;;;;19.17;77.53;100642.91;7359321;19;20014;-67
2023/09/28 00:10:28;;;;;;;17.63;1.38;;;;;;;19.16;77.67;100651.09;7359943;19;20037;-68
2023/09/28 00:12:56;;;;;;;19.77;1.65;;;;;;;19.16;77.45;100657.25;7358554;19;20037;-68
2023/09/28 00:15:24;;;;;;;20.02;2.10;;;;;;;19.14;77.52;100651.34;7359415;19;20524;-68
2023/09/28 00:17:54;;;;;;;14.55;1.55;;;;;;;19.14;77.76;100638.00;7357894;19;20014;-68
2023/09/28 00:20:25;;;;;;;14.98;1.50;;;;;;;19.08;76.78;100657.53;7361627;19;21256;-67
2023/09/28 00:22:53;;;;;;;22.33;1.45;;;;;;;19.06;78.84;100645.41;7358462;19;20465;-68
2023/09/28 00:25:23;;;;;;;20.55;1.02;;;;;;;19.01;77.47;100646.06;7362715;19;20020;-67
2023/09/28 00:27:55;;;;;;;18.35;1.55;;;;;;;19.00;79.01;100647.06;7357919;19;20702;-68
2023/09/28 00:30:26;;;;;;;15.65;1.08;;;;;;;19.02;78.85;100646.88;7358021;19;20015;-68
2023/09/28 00:32:55;;;;;;;17.02;1.45;;;;;;;19.01;78.72;100651.38;7357796;19;20070;-70
2023/09/28 00:35:26;;;;;;;15.88;1.35;;;;;;;19.05;79.78;100660.59;7360003;19;20015;-67
2023/09/28 00:37:53;;;;;;;14.43;1.67;;;;;;;19.07;79.29;100663.06;7358879;19;20006;-68
2023/09/28 00:40:28;;;;;;;22.55;1.95;;;;;;;19.09;79.33;100658.34;7359071;19;20010;-68
2023/09/28 00:42:56;;;;;;;21.30;2.95;;;;;;;19.10;79.85;100659.97;7356258;19;20086;-68
2023/09/28 00:45:26;;;;;;;20.10;2.65;;;;;;;19.08;79.07;100657.53;7357132;19;20014;-67
2023/09/28 00:47:59;;;;;;;14.82;1.35;;;;;;;19.11;79.92;100665.09;7355819;19;20044;-67
2023/09/28 00:50:31;;;;;;;18.40;1.75;;;;;;;19.09;79.52;100667.16;7353071;19;20111;-67
2023/09/28 00:53:06;;;;;;;23.90;1.75;;;;;;;19.10;78.49;100679.44;7357208;19;20026;-68
2023/09/28 00:55:36;;;;;;;16.40;1.63;;;;;;;19.11;79.25;100683.75;7356981;19;20561;-67
2023/09/28 00:58:06;;;;;;;21.00;2.72;;;;;;;19.11;79.14;100685.59;7353555;19;20011;-67
2023/09/28 01:00:34;;;;;;;16.35;1.35;;;;;;;19.05;77.84;100692.59;7350925;19;20011;-66
2023/09/28 01:03:05;;;;;;;17.90;1.90;;;;;;;19.07;79.45;100684.41;7357471;19;20375;-68
2023/09/28 01:05:34;;;;;;;17.52;1.42;;;;;;;19.09;79.07;100693.03;7355585;19;20020;-66
2023/09/28 01:08:06;;;;;;;20.75;1.80;;;;;;;19.05;78.60;100689.94;7356593;19;20511;-66
2023/09/28 01:10:38;;;;;;;24.58;1.98;;;;;;;19.04;78.77;100684.84;7356364;19;20589;-65
2023/09/28 01:13:10;;;;;;;18.70;1.60;;;;;;;19.07;80.06;100695.88;7353489;19;20018;-66
2023/09/28 01:15:40;;;;;;;;;;;;;;;19.06;79.73;100693.44;7357923;19;20046;-64
2023/09/28 01:18:09;;;;;;;19.27;1.52;;;;;;;19.06;77.99;100680.91;7355582;19;19989;-67
2023/09/28 01:20:38;;;;;;;20.02;1.45;;;;;;;19.07;78.63;100681.72;7358472;19;19999;-66
2023/09/28 01:23:06;;;;;;;15.90;1.83;;;;;;;19.05;78.41;100684.59;7355675;19;20086;-66
2023/09/28 01:25:34;;;;;;;14.98;1.58;;;;;;;19.07;78.28;100701.22;7356309;19;20010;-66
2023/09/28 01:28:02;;;;;;;15.35;1.65;;;;;;;19.08;79.52;100700.22;7353529;19;20094;-67
2023/09/28 01:30:33;;;;;;;18.35;1.75;;;;;;;19.08;79.25;100694.88;7356002;19;20018;-66
2023/09/28 01:33:00;;;;;;;21.45;1.77;;;;;;;19.06;79.16;100678.25;7356617;19;20018;-66
2023/09/28 01:35:29;;;;;;;16.23;1.52;;;;;;;19.06;79.03;100651.56;7355897;19;20035;-66
2023/09/28 01:38:02;;;;;;;16.40;1.35;;;;;;;19.06;78.30;100686.25;7356122;19;20022;-66
2023/09/28 01:40:29;;;;;;;17.95;1.60;;;;;;;19.00;78.22;100697.75;7353146;19;20059;-66
2023/09/28 01:42:59;;;;;;;12.38;1.17;;;;;;;18.98;78.24;100702.50;7351703;19;20026;-66
2023/09/28 01:45:29;;;;;;;13.30;1.15;;;;;;;18.90;77.83;100694.72;7355527;19;20015;-66
2023/09/28 01:47:57;;;;;;;16.13;0.98;;;;;;;18.80;76.43;100716.50;7355398;19;20017;-65
2023/09/28 01:50:27;;;;;;;20.58;1.75;;;;;;;18.76;77.83;100728.59;7349773;19;20010;-65
2023/09/28 01:52:55;;;;;;;13.85;1.63;;;;;;;18.73;77.62;100718.38;7355334;19;20011;-66
2023/09/28 01:55:23;;;;;;;17.83;1.67;;;;;;;18.70;76.92;100709.94;7352742;19;20017;-65
2023/09/28 01:57:50;;;;;;;16.55;1.58;;;;;;;18.67;77.72;100721.03;7352710;19;20018;-65
2023/09/28 02:00:21;;;;;;;12.77;0.80;;;;;;;18.70;78.07;100717.94;7351415;19;20059;-66
2023/09/28 02:02:53;;;;;;;11.23;0.90;;;;;;;18.67;76.86;100703.22;7353270;19;20019;-66
2023/09/28 02:05:22;;;;;;;17.08;1.27;;;;;;;18.72;78.04;100713.25;7353304;19;20050;-65
2023/09/28 02:07:50;;;;;;;14.07;0.80;;;;;;;18.76;77.38;100717.94;7354365;19;20600;-65
2023/09/28 02:10:18;;;;;;;14.57;1.15;;;;;;;18.76;76.34;100725.94;7355374;19;20010;-66
2023/09/28 02:12:47;;;;;;;11.82;1.13;;;;;;;18.78;76.39;100728.41;7352999;19;20590;-66
2023/09/28 02:15:15;;;;;;;17.25;2.67;;;;;;;18.78;76.03;100739.06;7354989;19;20018;-66
2023/09/28 02:17:44;;;;;;;15.88;1.23;;;;;;;18.83;76.13;100730.44;7353730;19;20478;-64
2023/09/28 02:20:15;;;;;;;12.70;1.00;;;;;;;18.86;76.74;100722.00;7351927;19;20002;-65
2023/09/28 02:22:45;;;;;;;15.15;1.17;;;;;;;18.86;75.74;100711.34;7357568;19;20550;-66
2023/09/28 02:25:15;;;;;;;16.65;2.78;;;;;;;18.80;74.29;100707.66;7357349;19;20006;-66
2023/09/28 02:27:43;;;;;;;10.52;0.77;;;;;;;18.82;75.88;100708.28;7351204;19;20047;-66
2023/09/28 02:30:12;;;;;;;13.00;0.82;;;;;;;18.83;75.98;100707.28;7353041;19;20006;-66
2023/09/28 02:32:40;;;;;;;16.63;1.23;;;;;;;18.81;74.65;100701.31;7353483;19;20055;-65
2023/09/28 02:35:13;;;;;;;15.05;1.08;;;;;;;18.79;74.82;100703.38;7356481;19;20006;-66
2023/09/28 02:37:45;;;;;;;8.65;0.98;;;;;;;18.76;75.11;100701.13;7347181;19;20098;-66
2023/09/28 02:40:14;;;;;;;11.68;0.90;;;;;;;18.80;75.50;100705.81;7354171;19;20024;-66
2023/09/28 02:42:45;;;;;;;10.35;0.60;;;;;;;18.79;74.79;100703.38;7349887;19;20656;-65
2023/09/28 02:45:12;;;;;;;14.20;1.27;;;;;;;18.75;73.31;100721.63;7355129;19;20018;-66
2023/09/28 02:47:47;;;;;;;15.07;1.30;;;;;;;18.77;73.78;100726.75;7352967;19;20010;-66
2023/09/28 02:50:18;;;;;;;12.93;0.77;;;;;;;18.78;75.01;100734.56;7351111;19;20018;-66
2023/09/28 02:52:46;;;;;;;12.07;0.70;;;;;;;18.76;74.03;100735.78;7348176;19;20053;-66
2023/09/28 02:55:17;;;;;;;10.52;0.73;;;;;;;18.72;74.36;100734.56;7354344;19;20037;-65
2023/09/28 02:57:47;;;;;;;11.75;0.70;;;;;;;18.73;74.63;100746.88;7351773;19;20010;-66
2023/09/28 03:02:47;;;;;;;11.40;0.68;;;;;;;18.72;74.32;100737.22;7350208;19;20010;-65
2023/09/28 03:05:16;;;;;;;12.25;1.70;;;;;;;18.69;74.18;100741.13;7350803;19;20078;-66
2023/09/28 03:07:47;;;;;;;12.15;1.10;;;;;;;18.64;73.60;100748.13;7352785;19;20038;-66
2023/09/28 03:10:16;;;;;;;14.93;0.90;;;;;;;18.62;74.86;100750.16;7352951;19;20017;-66
2023/09/28 03:12:46;;;;;;;14.10;1.00;;;;;;;18.61;75.24;100751.19;7350953;19;20361;-66
2023/09/28 03:15:16;;;;;;;14.38;1.02;;;;;;;18.57;74.69;100757.97;7353126;19;20126;-66
2023/09/28 03:17:46;;;;;;;10.20;0.80;;;;;;;18.60;76.27;100768.19;7352648;19;20003;-65
2023/09/28 03:20:17;;;;;;;10.82;0.60;;;;;;;18.53;74.69;100754.03;7355808;19;20010;-66
2023/09/28 03:22:46;;;;;;;16.60;1.00;;;;;;;18.54;76.71;100761.06;7352855;19;20495;-66
2023/09/28 03:25:17;;;;;;;13.80;0.80;;;;;;;18.55;76.63;100760.00;7353255;19;20014;-66
2023/09/28 03:27:48;;;;;;;13.48;2.08;;;;;;;18.54;76.13;100775.16;7350008;19;20007;-66
2023/09/28 03:30:17;;;;;;;12.45;0.82;;;;;;;18.57;76.39;100773.97;7358760;19;20014;-66
2023/09/28 03:32:47;;;;;;;10.90;0.60;;;;;;;18.57;75.94;100774.78;7359591;19;20114;-66
2023/09/28 03:35:17;;;;;;;7.18;0.70;;;;;;;18.58;76.18;100780.94;7361393;19;20035;-65
2023/09/28 03:37:46;;;;;;;12.23;0.70;;;;;;;18.59;75.89;100798.56;7353395;19;20030;-66
2023/09/28 03:40:15;;;;;;;10.52;0.85;;;;;;;18.62;76.79;100795.47;7361268;19;20463;-65
2023/09/28 03:42:44;;;;;;;8.77;0.65;;;;;;;18.65;77.45;100800.38;7354714;19;20018;-67
2023/09/28 03:45:14;;;;;;;11.05;0.98;;;;;;;18.65;77.07;100805.72;7359176;19;20053;-65
2023/09/28 03:47:44;;;;;;;10.85;0.85;;;;;;;18.68;77.25;100816.00;7360212;19;20030;-65
2023/09/28 03:50:13;;;;;;;14.45;0.88;;;;;;;18.67;76.14;100809.84;7357069;19;20026;-66
2023/09/28 03:52:45;;;;;;;16.45;1.08;;;;;;;18.67;76.91;100819.69;7354108;19;20014;-66
2023/09/28 03:55:14;;;;;;;9.80;0.68;;;;;;;18.69;77.25;100812.31;7359608;19;20018;-65
2023/09/28 03:57:43;;;;;;;8.32;1.05;;;;;;;18.70;78.06;100819.25;7354495;19;20022;-66
2023/09/28 04:00:14;;;;;;;15.13;1.13;;;;;;;18.70;76.95;100830.75;7359456;19;20051;-66
2023/09/28 04:02:46;;;;;;;25.48;1.95;;;;;;;18.71;78.17;100831.56;7352466;19;20015;-66
2023/09/28 04:05:19;;;;;;;9.25;0.93;;;;;;;18.68;77.57;100843.47;7356961;19;20010;-65
2023/09/28 04:07:47;;;;;;;9.35;1.52;;;;;;;18.66;77.04;100839.34;7359160;19;20046;-67
2023/09/28 04:10:14;;;;;;;14.05;1.80;;;;;;;18.61;76.73;100842.63;7357705;19;20010;-65
2023/09/28 04:12:42;;;;;;;9.60;0.80;;;;;;;18.61;76.73;100841.81;7355236;19;20018;-66
2023/09/28 04:15:10;;;;;;;11.70;0.90;;;;;;;18.55;77.31;100843.44;7358020;19;20603;-66
2023/09/28 04:17:37;;;;;;;10.52;0.90;;;;;;;18.52;75.93;100849.16;7359630;19;20408;-66
2023/09/28 04:20:13;;;;;;;12.30;1.52;;;;;;;18.49;77.58;100848.78;7358433;19;20082;-65
2023/09/28 04:22:41;;;;;;;11.02;1.05;;;;;;;18.50;78.30;100851.22;7357345;19;20139;-66
2023/09/28 04:25:09;;;;;;;10.43;1.45;;;;;;;18.53;78.01;100852.66;7359163;19;20017;-67
2023/09/28 04:27:36;;;;;;;12.63;0.70;;;;;;;18.53;77.87;100861.47;7354677;19;20043;-66
2023/09/28 04:30:05;;;;;;;12.80;0.70;;;;;;;18.49;76.75;100873.53;7357513;19;20688;-65
2023/09/28 04:32:32;;;;;;;7.95;0.73;;;;;;;18.51;77.72;100879.50;7356694;19;20720;-66
2023/09/28 04:35:00;;;;;;;14.25;1.00;;;;;;;18.50;76.92;100880.53;7359492;19;20729;-65
2023/09/28 04:37:28;;;;;;;12.20;0.77;;;;;;;18.51;77.28;100874.19;7357838;19;20019;-65
2023/09/28 04:39:56;;;;;;;10.27;0.63;;;;;;;18.53;78.20;100887.31;7354705;19;20015;-66
2023/09/28 04:42:23;;;;;;;9.93;0.50;;;;;;;18.50;77.39;100879.69;7352440;19;20014;-66
2023/09/28 04:44:50;;;;;;;8.32;0.77;;;;;;;18.51;78.90;100887.50;7357992;19;20018;-65
2023/09/28 04:47:18;;;;;;;15.60;1.00;;;;;;;18.51;77.95;100890.16;7356843;19;20015;-67
2023/09/28 04:49:46;;;;;;;9.55;0.70;;;;;;;18.50;77.50;100896.50;7358428;19;20022;-65
2023/09/28 04:52:14;;;;;;;9.30;0.43;;;;;;;18.45;77.39;100885.63;7353491;19;20011;-66
2023/09/28 04:54:42;;;;;;;15.73;1.20;;;;;;;18.43;77.78;100876.22;7355289;19;20105;-66
2023/09/28 04:57:09;;;;;;;8.93;0.50;;;;;;;18.39;77.58;100871.28;7354430;19;20399;-66
2023/09/28 04:59:38;;;;;;;12.10;0.70;;;;;;;18.41;78.76;100892.41;7356222;19;20015;-65
2023/09/28 05:02:09;;;;;;;10.52;1.00;;;;;;;18.41;77.56;100896.91;7353498;19;20021;-67
2023/09/28 05:04:37;;;;;;;12.00;1.23;;;;;;;18.44;79.44;100888.53;7352681;19;20015;-66
2023/09/28 05:07:04;;;;;;;11.05;0.80;;;;;;;18.44;77.96;100885.88;7354884;19;20018;-66
2023/09/28 05:09:33;;;;;;;7.07;0.50;;;;;;;18.42;76.83;100894.06;7358427;19;20014;-65
2023/09/28 05:12:01;;;;;;;9.90;0.70;;;;;;;18.43;76.91;100889.53;7352908;19;20040;-66
2023/09/28 05:14:33;;;;;;;7.90;0.80;;;;;;;18.47;78.13;100885.44;7357190;19;20018;-66
2023/09/28 05:17:01;;;;;;;8.80;0.65;;;;;;;18.43;75.31;100893.03;7355544;19;20018;-66
2023/09/28 05:19:30;;;;;;;7.22;1.15;;;;;;;18.40;75.48;100896.09;7359510;19;20214;-66
2023/09/28 05:21:57;;;;;;;11.98;0.85;;;;;;;18.39;75.44;100913.09;7353579;19;20014;-65
2023/09/28 05:24:24;;;;;;;7.90;0.50;;;;;;;18.33;74.62;100905.94;7358560;19;20030;-67
2023/09/28 05:26:52;;;;;;;9.80;0.40;;;;;;;18.35;75.95;100922.50;7355593;19;20272;-67
2023/09/28 05:29:21;;;;;;;5.50;0.30;;;;;;;18.37;75.81;100918.66;7353375;19;20053;-66
2023/09/28 05:31:48;;;;;;;6.13;0.60;;;;;;;18.39;75.10;100929.06;7355270;19;20248;-67
2023/09/28 05:34:16;;;;;;;6.82;0.40;;;;;;;18.36;73.94;100935.66;7353616;19;20006;-66
2023/09/28 05:36:46;;;;;;;7.32;0.50;;;;;;;18.37;74.60;100934.63;7354159;19;20374;-66
2023/09/28 05:39:13;;;;;;;8.50;0.50;;;;;;;18.40;74.42;100938.72;7356004;19;20039;-67
2023/09/28 05:41:41;;;;;;;10.38;0.60;;;;;;;18.43;74.55;100933.00;7356817;19;20010;-65
2023/09/28 05:44:09;;;;;;;7.38;0.63;;;;;;;18.41;73.44;100935.03;7353280;19;20015;-66
2023/09/28 05:46:40;;;;;;;6.53;0.50;;;;;;;18.37;74.16;100947.13;7357934;19;20039;-67
2023/09/28 05:49:07;;;;;;;4.85;0.40;;;;;;;18.37;74.92;100955.13;7354955;19;20018;-66
2023/09/28 05:51:35;;;;;;;9.40;0.60;;;;;;;18.41;76.18;100951.03;7353750;19;20844;-66
2023/09/28 05:54:03;;;;;;;10.23;0.60;;;;;;;18.45;75.52;100946.09;7348363;19;20054;-66
2023/09/28 05:56:30;;;;;;;11.82;1.50;;;;;;;18.46;75.25;100947.75;7356257;19;20014;-66
2023/09/28 05:58:59;;;;;;;6.40;0.65;;;;;;;18.45;74.84;100954.94;7351428;19;20014;-65
2023/09/28 06:01:29;;;;;;;9.85;0.60;;;;;;;18.46;74.74;100956.56;7354775;19;20033;-66
2023/09/28 06:03:57;;;;;;;7.15;0.57;;;;;;;18.47;75.41;100960.06;7350082;19;20069;-66
2023/09/28 06:06:25;;;;;;;7.15;0.50;;;;;;;18.48;75.61;100959.88;7351127;19;20014;-66
2023/09/28 06:08:53;;;;;;;14.48;0.60;;;;;;;18.47;75.63;100955.56;7353996;19;20018;-67
2023/09/28 06:11:21;;;;;;;8.40;0.90;;;;;;;18.42;75.64;100967.84;7353774;19;20014;-66
2023/09/28 06:13:49;;;;;;;8.77;0.60;;;;;;;18.43;77.03;100975.66;7352947;19;20755;-66
2023/09/28 06:16:19;;;;;;;9.57;0.95;;;;;;;18.41;76.92;100993.66;7354539;19;20094;-66
2023/09/28 06:18:47;;;;;;;9.63;0.50;;;;;;;18.35;76.21;100995.28;7355335;19;20113;-66
2023/09/28 06:21:16;;;;;;;13.07;1.02;;;;;;;18.33;76.69;100989.34;7354885;19;20039;-66
2023/09/28 06:23:44;;;;;;;7.97;0.60;;;;;;;18.31;76.40;100988.72;7354591;19;20664;-66
2023/09/28 06:26:12;;;;;;;10.27;0.77;;;;;;;18.32;77.47;101003.69;7354307;19;20034;-66
2023/09/28 06:28:52;;;;;;;10.25;0.80;;;;;;;18.35;77.13;101000.63;7350979;19;20026;-65
2023/09/28 06:31:20;;;;;;;12.68;0.70;;;;;;;18.36;77.73;101004.94;7353849;19;20517;-66
2023/09/28 06:33:48;;;;;;;8.77;0.52;;;;;;;18.39;78.38;101003.69;7351569;19;20018;-67
2023/09/28 06:36:16;;;;;;;9.15;0.68;;;;;;;18.40;77.68;101008.00;7355118;19;20133;-66
2023/09/28 06:39:04;;;;;;;10.30;0.77;;;;;;;18.37;76.90;100998.59;7353481;19;20318;-66
2023/09/28 06:41:32;;;;;;;8.15;0.60;;;;;;;18.38;78.33;100996.75;7354389;19;20026;-66
2023/09/28 06:43:59;;;;;;;7.13;0.70;;;;;;;18.42;79.18;101005.16;7349893;19;20009;-66
2023/09/28 06:46:27;;;;;;;11.90;0.93;;;;;;;18.41;78.54;101008.84;7355556;19;20014;-65
2023/09/28 06:48:55;;;;;;;13.95;0.80;;;;;;;18.41;78.51;101011.50;7355983;19;20106;-65
2023/09/28 06:51:25;;;;;;;6.68;0.60;;;;;;;18.33;76.42;101009.84;7355841;19;20029;-66
2023/09/28 06:53:54;;;;;;;8.52;1.23;;;;;;;18.34;76.24;101022.13;7355687;19;20011;-66
2023/09/28 06:56:23;;;;;;;7.10;0.60;;;;;;;18.37;78.49;101017.25;7354981;19;20026;-66
2023/09/28 06:58:56;;;;;;;8.25;0.68;;;;;;;18.36;77.68;101012.91;7350278;19;20501;-66
2023/09/28 07:01:24;;;;;;;13.82;1.20;;;;;;;18.39;78.17;101015.19;7353830;19;20025;-65
2023/09/28 07:03:53;;;;;;;10.07;0.82;;;;;;;18.43;78.01;101018.28;7352512;19;20129;-65
2023/09/28 07:06:21;;;;;;;9.57;1.67;;;;;;;18.42;77.53;101027.28;7352544;19;20011;-65
2023/09/28 07:08:49;;;;;;;10.40;0.60;;;;;;;18.42;77.46;101018.47;7355605;19;20667;-65
2023/09/28 07:11:19;;;;;;;9.43;0.60;;;;;;;18.40;77.57;101024.00;7354197;19;20961;-67
2023/09/28 07:13:47;;;;;;;6.45;0.60;;;;;;;18.44;77.25;101019.91;7351916;19;20354;-66
2023/09/28 07:16:16;;;;;;;10.13;0.80;;;;;;;18.44;76.02;101024.44;7353813;19;20015;-66
2023/09/28 07:18:49;;;;;;;11.45;0.50;;;;;;;18.41;75.46;101025.66;7353284;19;20015;-67
2023/09/28 07:21:17;;;;;;;10.07;0.50;;;;;;;18.38;76.97;101020.72;7354197;19;20014;-65
2023/09/28 07:23:45;;;;;;;9.38;0.70;;;;;;;18.41;77.46;101022.97;7354900;19;20006;-66
2023/09/28 07:26:41;;;;;;;8.82;0.70;;;;;;;18.41;78.46;101024.81;7350617;19;20031;-65
2023/09/28 07:29:15;;;;;;;12.00;0.57;;;;;;;18.33;75.13;101020.50;7346280;19;20651;-65
2023/09/28 07:31:59;;;;;;;8.50;1.90;;;;;;;18.28;75.94;101021.09;7349540;19;20078;-66
2023/09/28 07:34:27;;;;;;;9.43;0.80;;;;;;;18.30;76.56;101034.19;7353006;19;20018;-65
2023/09/28 07:36:55;;;;;;;7.80;0.50;;;;;;;18.31;76.65;101046.50;7343604;19;20018;-66
2023/09/28 07:39:27;;;;;;;9.82;0.60;;;;;;;18.32;76.65;101048.16;7338180;19;20403;-64
2023/09/28 07:41:55;;;;;;;8.40;0.50;;;;;;;18.32;75.50;101043.66;7350158;19;20651;-65
2023/09/28 07:44:31;;;;;;;9.20;1.40;;;;;;;18.35;76.47;101047.75;7351713;19;20018;-65
2023/09/28 07:47:00;;;;;;;8.75;0.57;;;;;;;18.33;76.00;101047.16;7349935;19;20019;-66
2023/09/28 07:49:31;;;;;;;12.38;0.70;;;;;;;18.26;75.41;101052.44;7353016;19;20491;-65
2023/09/28 07:52:02;;;;;;;8.32;0.60;;;;;;;18.26;76.25;101048.94;7350060;19;20037;-66
2023/09/28 07:54:35;;;;;;;7.40;0.50;;;;;;;18.27;76.41;101047.94;7354446;19;20015;-67
2023/09/28 07:57:05;;;;;;;14.38;0.80;;;;;;;18.33;76.29;101050.63;7348932;19;20019;-65
2023/09/28 07:59:34;;;;;;;8.38;0.73;;;;;;;18.35;76.18;101045.09;7350778;19;20048;-66
2023/09/28 08:02:05;;;;;;;14.25;0.93;;;;;;;18.38;76.31;101039.38;7348514;19;20026;-65
2023/09/28 08:04:33;;;;;;;13.15;0.93;;;;;;;18.37;75.94;101033.22;7349690;19;20015;-66
2023/09/28 08:07:04;;;;;;;7.85;0.70;;;;;;;18.42;77.09;101035.28;7346123;19;20017;-66
2023/09/28 08:09:37;;;;;;;11.05;0.77;;;;;;;18.56;84.84;101034.34;7350492;19;20485;-65
2023/09/28 08:12:06;;;;;;;10.63;0.70;;;;;;;18.63;81.07;101032.53;7347391;19;20015;-65
2023/09/28 08:14:35;;;;;;;17.38;0.85;;;;;;;18.64;80.27;101020.81;7351236;19;20033;-65
2023/09/28 08:17:03;;;;;;;14.77;0.88;;;;;;;18.70;81.64;101022.69;7360789;19;20014;-65
2023/09/28 08:19:31;;;;;;;12.18;0.77;;;;;;;18.77;82.23;101036.06;7358168;19;21575;-65
2023/09/28 08:22:03;;;;;;;14.73;1.77;;;;;;;18.84;77.67;101025.41;7361137;19;20018;-65
2023/09/28 08:24:32;;;;;;;11.95;0.85;;;;;;;18.86;76.97;101021.50;7356583;19;20178;-65
2023/09/28 08:27:05;;;;;;;11.23;1.00;;;;;;;18.87;75.34;101023.16;7356514;19;20086;-65
2023/09/28 08:29:37;;;;;;;9.90;0.70;;;;;;;18.85;76.35;101033.19;7355262;19;20949;-65
2023/09/28 08:32:12;;;;;;;9.18;0.98;;;;;;;18.84;76.89;101026.22;7356538;19;20019;-65
2023/09/28 08:34:40;;;;;;;7.78;0.80;;;;;;;18.76;73.11;101027.22;7358609;19;20361;-65
2023/09/28 08:37:08;;;;;;;10.32;1.17;;;;;;;18.77;74.28;101042.22;7357213;19;20014;-65
2023/09/28 08:39:38;;;;;;;10.48;0.90;;;;;;;18.74;74.13;101050.59;7359517;19;20009;-66
2023/09/28 08:42:13;;;;;;;10.93;1.00;;;;;;;18.67;73.12;101052.44;7357838;19;20017;-65
2023/09/28 08:44:46;;;;;;;11.82;1.05;;;;;;;18.66;72.56;101064.13;7355334;19;20847;-65
2023/09/28 08:47:22;;;;;;;13.52;1.02;;;;;;;18.60;72.05;101067.56;7357533;19;20577;-65
2023/09/28 08:49:51;;;;;;;9.70;0.80;;;;;;;18.61;72.34;101061.22;7359410;19;20462;-65
2023/09/28 08:52:24;;;;;;;11.80;1.08;;;;;;;18.63;74.03;101069.84;7356782;19;20032;-65
2023/09/28 08:54:56;;;;;;;8.63;0.73;;;;;;;18.62;72.53;101078.03;7359439;19;20018;-65
2023/09/28 08:57:29;;;;;;;9.43;1.85;;;;;;;18.61;72.09;101068.41;7353921;19;20534;-65
2023/09/28 08:59:58;;;;;;;11.85;1.05;;;;;;;18.61;71.48;101071.88;7356805;19;20015;-65
2023/09/28 09:02:27;;;;;;;17.15;0.98;;;;;;;18.60;72.58;101082.75;7360668;19;20011;-66
2023/09/28 09:04:55;;;;;;;13.18;0.98;;;;;;;18.61;72.54;101069.22;7358761;19;20014;-65
2023/09/28 09:07:27;;;;;;;18.13;1.15;;;;;;;18.68;73.54;101064.75;7355946;19;20011;-65
2023/09/28 09:09:57;;;;;;;13.48;1.23;;;;;;;18.76;73.78;101061.88;7358495;19;20019;-65
2023/09/28 09:12:28;;;;;;;16.13;1.30;;;;;;;18.85;73.21;101053.69;7353029;19;20014;-65
2023/09/28 09:15:08;;;;;;;14.73;1.33;;;;;;;18.86;71.74;101066.00;7358374;19;20010;-65
2023/09/28 09:17:44;;;;;;;13.45;1.08;;;;;;;18.84;71.35;101062.75;7360231;19;20026;-65
2023/09/28 09:20:24;;;;;;;13.40;1.30;;;;;;;18.85;70.74;101067.84;7358675;19;20463;-67
2023/09/28 09:22:55;;;;;;;12.70;1.02;;;;;;;18.90;72.51;101065.41;7358247;19;20051;-65
2023/09/28 09:25:40;;;;;;;14.10;1.40;;;;;;;18.92;71.39;101079.38;7357010;19;20011;-66
2023/09/28 09:28:08;;;;;;;11.70;1.65;;;;;;;18.93;70.80;101086.34;7354895;19;20573;-66
2023/09/28 09:30:40;;;;;;;12.00;1.15;;;;;;;18.92;70.33;101081.22;7358027;19;20082;-65
2023/09/28 09:33:09;;;;;;;11.03;1.33;;;;;;;18.91;69.77;101085.72;7355358;19;20026;-65
2023/09/28 09:35:40;;;;;;;12.48;1.17;;;;;;;18.92;70.65;101086.56;7359947;19;20279;-65
2023/09/28 09:38:07;;;;;;;16.83;2.28;;;;;;;18.92;70.93;101076.72;7358376;19;20370;-66
2023/09/28 09:40:35;;;;;;;8.10;1.08;;;;;;;19.02;73.20;101068.31;7358116;19;20006;-67
2023/09/28 09:43:10;;;;;;;17.33;1.10;;;;;;;19.05;71.51;101075.91;7354797;19;20014;-65
2023/09/28 09:45:42;;;;;;;12.05;2.50;;;;;;;19.12;70.93;101071.41;7357488;19;20022;-65
2023/09/28 09:48:11;;;;;;;11.68;1.30;;;;;;;19.08;68.70;101070.19;7358400;19;20041;-65
2023/09/28 09:50:43;;;;;;;11.27;0.88;;;;;;;19.04;68.31;101075.09;7357227;19;20010;-66
2023/09/28 09:53:28;;;;;;;11.98;1.00;;;;;;;19.04;70.56;101099.13;7351687;19;20023;-66
2023/09/28 09:55:58;;;;;;;14.05;1.35;;;;;;;19.08;69.13;101103.03;7359914;19;20366;-66
2023/09/28 09:58:33;;;;;;;13.90;1.15;;;;;;;19.09;70.74;101117.19;7353010;19;20952;-65
2023/09/28 10:01:04;;;;;;;18.58;1.00;;;;;;;19.05;69.33;101103.41;7357611;19;20493;-66
2023/09/28 10:03:35;;;;;;;11.00;1.00;;;;;;;19.08;71.22;101102.19;7353728;19;20018;-66
2023/09/28 10:06:03;;;;;;;13.80;1.25;;;;;;;19.12;70.54;101093.59;7325505;19;20018;-65
2023/09/28 10:08:50;;;;;;;10.48;1.05;;;;;;;19.19;70.95;101075.75;7346765;19;21340;-66
2023/09/28 10:11:47;;;;;;;13.02;2.20;;;;;;;19.25;70.50;101071.41;7354250;19;20829;-65
2023/09/28 10:14:28;;;;;;;10.23;1.00;;;;;;;19.31;69.59;101091.97;7353323;19;20048;-65
2023/09/28 10:17:04;;;;;;;11.75;0.85;;;;;;;19.30;67.82;101090.31;7355143;19;20015;-65
2023/09/28 10:19:41;;;;;;;;;;;;;;;;;;;;;
2023/09/28 10:22:19;;;;;;;18.10;1.27;;;;;;;19.23;69.58;101084.16;7355032;19;20094;-65
2023/09/28 10:24:52;;;;;;;9.98;1.40;;;;;;;19.20;68.77;101084.56;7354607;19;20509;-65
2023/09/28 10:27:20;;;;;;;11.90;1.08;;;;;;;19.23;70.56;101092.16;7353665;19;20038;-64
2023/09/28 10:29:48;;;;;;;14.25;1.40;;;;;;;19.28;70.92;101091.56;7355089;19;20085;-65
2023/09/28 10:32:21;;;;;;;15.95;1.52;;;;;;;19.33;71.24;101094.44;7356229;19;20421;-66
2023/09/28 10:35:13;;;;;;;11.07;1.00;;;;;;;19.39;72.10;101073.09;7357250;19;20038;-65
2023/09/28 10:37:40;;;;;;;14.18;1.45;;;;;;;19.46;69.93;101083.78;7355514;19;20045;-64
2023/09/28 10:40:11;;;;;;;13.02;1.38;;;;;;;19.46;69.19;101065.94;7355457;19;20473;-65
2023/09/28 10:42:39;;;;;;;20.92;1.40;;;;;;;19.44;67.37;101072.47;7350790;19;20011;-67
2023/09/28 10:45:09;;;;;;;16.00;2.00;;;;;;;19.35;67.68;101073.72;7355121;19;20025;-66
2023/09/28 10:47:38;;;;;;;15.98;1.45;;;;;;;19.38;69.76;101068.78;7354562;19;20015;-65
2023/09/28 10:50:08;;;;;;;13.30;1.50;;;;;;;19.40;69.71;101069.38;7354281;19;20021;-66
2023/09/28 10:52:36;;;;;;;17.40;1.95;;;;;;;19.41;69.59;101057.69;7353007;19;20589;-65
2023/09/28 10:55:06;;;;;;;11.48;1.73;;;;;;;19.50;71.70;101058.34;7353463;19;20010;-65
2023/09/28 10:57:33;;;;;;;14.80;1.30;;;;;;;19.58;71.03;101058.97;7352584;19;20541;-66
2023/09/28 11:00:04;;;;;;;15.00;1.58;;;;;;;19.59;68.66;101057.13;7355489;19;20357;-65
2023/09/28 11:02:35;;;;;;;13.38;1.20;;;;;;;19.55;69.43;101070.06;7352442;19;20041;-65
2023/09/28 11:05:07;;;;;;;16.27;1.57;;;;;;;19.53;70.33;101065.94;7352868;19;20033;-65
2023/09/28 11:07:37;;;;;;;10.00;1.67;;;;;;;19.61;70.62;101081.75;7354593;19;21712;-65
2023/09/28 11:10:08;;;;;;;12.52;1.83;;;;;;;19.68;72.50;101077.22;7349612;19;20014;-65
2023/09/28 11:12:36;;;;;;;13.35;1.25;;;;;;;19.64;69.08;101065.31;7350785;19;20493;-67
2023/09/28 11:15:08;;;;;;;16.13;1.65;;;;;;;19.66;70.99;101067.81;7354246;19;20015;-66
2023/09/28 11:17:39;;;;;;;16.27;2.05;;;;;;;19.73;69.90;101066.75;7352723;19;20053;-65
2023/09/28 11:22:49;;;;;;;16.13;1.50;;;;;;;19.77;69.69;101080.50;7354049;19;20007;-66
2023/09/28 11:25:17;;;;;;;17.83;2.00;;;;;;;19.79;69.16;101092.63;7354045;19;20011;-65
2023/09/28 11:27:46;;;;;;;15.50;1.48;;;;;;;19.83;69.64;101093.03;7340602;19;20061;-66
2023/09/28 11:30:19;;;;;;;22.02;1.67;;;;;;;19.82;69.88;101096.72;7350365;19;20034;-65
2023/09/28 11:32:48;;;;;;;17.45;1.90;;;;;;;19.81;68.99;101095.13;7349193;19;20015;-65
2023/09/28 11:35:22;;;;;;;17.23;1.98;;;;;;;19.85;69.37;101094.50;7351967;19;20010;-66
2023/09/28 11:37:51;;;;;;;20.52;1.85;;;;;;;19.91;69.51;101090.97;7349259;19;20011;-66
2023/09/28 11:40:22;;;;;;;24.13;2.00;;;;;;;19.87;68.36;101075.56;7350389;19;20015;-65
2023/09/28 11:42:53;;;;;;;15.38;1.60;;;;;;;19.82;69.03;101067.34;7347369;19;20846;-66